createdAt,value
2017-10-22T00:01:57.819Z,21.66
2017-10-22T00:04:25.131Z,21.65
2017-10-22T00:06:52.381Z,21.65
2017-10-22T00:09:20.547Z,21.64
2017-10-22T00:11:49.191Z,21.63
2017-10-22T00:14:16.396Z,21.63
2017-10-22T00:16:43.632Z,21.62
2017-10-22T00:19:10.823Z,21.62
2017-10-22T00:21:37.972Z,21.62
2017-10-22T00:24:05.207Z,21.61
2017-10-22T00:26:32.422Z,21.61
2017-10-22T00:28:59.648Z,21.59
2017-10-22T00:31:26.852Z,21.60
2017-10-22T00:33:54.391Z,21.61
2017-10-22T00:36:21.553Z,21.60
2017-10-22T00:38:48.754Z,21.59
2017-10-22T00:41:15.923Z,21.58
2017-10-22T00:43:43.127Z,21.57
2017-10-22T00:46:10.327Z,21.57
2017-10-22T00:48:37.582Z,21.57
2017-10-22T00:51:04.835Z,21.56
2017-10-22T00:53:31.993Z,21.56
2017-10-22T00:55:59.343Z,21.55
2017-10-22T00:58:26.528Z,21.54
2017-10-22T01:08:33.374Z,21.52
2017-10-22T01:11:00.688Z,21.51
2017-10-22T01:13:27.857Z,21.51
2017-10-22T01:15:55.176Z,21.50
2017-10-22T01:18:22.359Z,21.49
2017-10-22T01:20:49.707Z,21.49
2017-10-22T01:23:16.922Z,21.49
2017-10-22T01:25:44.327Z,21.48
2017-10-22T01:28:11.555Z,21.47
2017-10-22T01:30:38.752Z,21.46
2017-10-22T01:33:05.942Z,21.45
2017-10-22T01:35:33.204Z,21.44
2017-10-22T01:38:00.417Z,21.43
2017-10-22T01:40:28.605Z,21.43
2017-10-22T02:08:31.154Z,21.36
2017-10-22T02:16:05.071Z,21.35
2017-10-22T02:18:32.278Z,21.34
2017-10-22T02:20:59.588Z,21.32
2017-10-22T02:23:26.820Z,21.31
2017-10-22T02:25:54.128Z,21.31
2017-10-22T02:28:21.305Z,21.31
2017-10-22T02:30:48.532Z,21.31
2017-10-22T02:33:15.790Z,21.30
2017-10-22T03:21:53.727Z,21.21
2017-10-22T03:24:20.952Z,21.21
2017-10-22T03:26:48.167Z,21.21
2017-10-22T03:29:15.362Z,21.20
2017-10-22T03:31:42.577Z,21.20
2017-10-22T03:34:09.770Z,21.19
2017-10-22T03:36:37.055Z,21.19
2017-10-22T03:39:04.210Z,21.18
2017-10-22T03:41:31.469Z,21.18
2017-10-22T03:43:58.655Z,21.18
2017-10-22T03:46:25.861Z,21.18
2017-10-22T03:48:53.139Z,21.16
2017-10-22T03:51:20.382Z,21.16
2017-10-22T03:53:47.649Z,21.15
2017-10-22T03:56:14.875Z,21.15
2017-10-22T03:58:42.219Z,21.14
2017-10-22T04:01:09.384Z,21.13
2017-10-22T04:03:36.668Z,21.12
2017-10-22T04:06:03.944Z,21.13
2017-10-22T04:08:31.143Z,21.12
2017-10-22T04:10:58.346Z,21.12
2017-10-22T04:23:56.684Z,21.08
2017-10-22T04:26:31.969Z,21.07
2017-10-22T04:34:19.450Z,21.07
2017-10-22T04:36:46.683Z,21.07
2017-10-22T04:39:13.850Z,21.06
2017-10-22T04:41:41.063Z,21.06
2017-10-22T04:44:08.347Z,21.06
2017-10-22T04:46:37.083Z,21.05
2017-10-22T04:49:04.372Z,21.04
2017-10-22T04:51:31.538Z,21.04
2017-10-22T04:53:58.755Z,21.05
2017-10-22T04:56:25.988Z,21.04
2017-10-22T04:58:53.144Z,21.04
2017-10-22T05:04:15.237Z,21.04
2017-10-22T05:06:42.413Z,21.04
2017-10-22T05:09:09.604Z,21.04
2017-10-22T05:11:36.741Z,21.04
2017-10-22T05:14:03.987Z,21.04
2017-10-22T05:16:31.281Z,21.05
2017-10-22T05:18:58.495Z,21.05
2017-10-22T05:21:25.699Z,21.06
2017-10-22T05:23:52.942Z,21.07
2017-10-22T05:26:20.123Z,21.09
2017-10-22T05:28:47.387Z,21.10
2017-10-22T05:31:14.568Z,21.11
2017-10-22T05:33:41.751Z,21.12
2017-10-22T05:36:08.943Z,21.14
2017-10-22T05:38:36.143Z,21.14
2017-10-22T05:43:45.749Z,21.19
2017-10-22T05:46:12.950Z,21.21
2017-10-22T05:48:40.140Z,21.22
2017-10-22T05:51:07.348Z,21.25
2017-10-22T05:53:34.537Z,21.27
2017-10-22T05:56:01.703Z,21.32
2017-10-22T05:58:28.926Z,21.34
2017-10-22T06:00:56.099Z,21.39
2017-10-22T06:03:23.324Z,21.40
2017-10-22T06:05:50.523Z,21.48
2017-10-22T06:08:17.739Z,21.52
2017-10-22T06:10:44.961Z,21.51
2017-10-22T06:13:12.193Z,21.54
2017-10-22T06:15:39.356Z,21.55
2017-10-22T06:18:06.565Z,21.55
2017-10-22T06:20:33.717Z,21.58
2017-10-22T06:23:00.907Z,21.60
2017-10-22T06:25:28.110Z,21.60
2017-10-22T06:27:55.269Z,21.61
2017-10-22T06:30:22.472Z,21.63
2017-10-22T06:32:49.639Z,21.63
2017-10-22T06:35:16.796Z,21.62
2017-10-22T06:37:44.089Z,21.63
2017-10-22T06:40:11.244Z,21.64
2017-10-22T06:42:38.408Z,21.66
2017-10-22T06:45:05.618Z,21.67
2017-10-22T06:47:32.796Z,21.68
2017-10-22T06:50:00.114Z,21.69
2017-10-22T06:52:27.370Z,21.73
2017-10-22T06:54:54.577Z,21.78
2017-10-22T06:57:21.827Z,21.81
2017-10-22T06:59:49.012Z,21.86
2017-10-22T07:02:16.205Z,21.90
2017-10-22T07:04:43.376Z,21.94
2017-10-22T07:07:10.573Z,21.98
2017-10-22T07:09:37.775Z,22.03
2017-10-22T07:12:04.957Z,22.06
2017-10-22T07:14:32.174Z,22.10
2017-10-22T07:16:59.343Z,22.14
2017-10-22T07:19:26.516Z,22.17
2017-10-22T07:21:53.847Z,22.20
2017-10-22T07:24:21.052Z,22.24
2017-10-22T07:26:48.268Z,22.26
2017-10-22T07:29:15.498Z,22.29
2017-10-22T07:31:42.692Z,22.31
2017-10-22T07:34:09.867Z,22.34
2017-10-22T07:36:37.101Z,22.36
2017-10-22T07:39:04.247Z,22.38
2017-10-22T07:41:31.428Z,22.41
2017-10-22T07:43:58.711Z,22.44
2017-10-22T07:46:25.933Z,22.47
2017-10-22T07:48:53.253Z,22.49
2017-10-22T07:51:20.417Z,22.51
2017-10-22T07:53:47.619Z,22.52
2017-10-22T07:56:14.819Z,22.53
2017-10-22T07:58:42.014Z,22.56
2017-10-22T08:01:09.247Z,22.57
2017-10-22T08:03:36.482Z,22.60
2017-10-22T08:06:03.700Z,22.62
2017-10-22T08:08:30.882Z,22.65
2017-10-22T08:10:58.092Z,22.64
2017-10-22T08:13:25.316Z,22.66
2017-10-22T08:15:52.548Z,22.67
2017-10-22T08:18:19.759Z,22.69
2017-10-22T08:20:46.944Z,22.69
2017-10-22T08:23:14.140Z,22.70
2017-10-22T08:25:41.350Z,22.72
2017-10-22T08:28:08.534Z,22.72
2017-10-22T08:30:35.867Z,22.73
2017-10-22T08:33:03.124Z,22.75
2017-10-22T08:35:30.302Z,22.76
2017-10-22T08:37:57.495Z,22.78
2017-10-22T08:40:24.665Z,22.79
2017-10-22T08:42:51.865Z,22.79
2017-10-22T08:45:19.108Z,22.80
2017-10-22T08:47:46.284Z,22.82
2017-10-22T08:50:13.444Z,22.84
2017-10-22T08:52:40.673Z,22.85
2017-10-22T08:55:07.832Z,22.86
2017-10-22T08:57:34.988Z,22.87
2017-10-22T09:00:02.241Z,22.88
2017-10-22T09:02:29.456Z,22.89
2017-10-22T09:04:56.616Z,22.90
2017-10-22T09:07:23.841Z,22.92
2017-10-22T09:09:51.008Z,22.92
2017-10-22T09:12:18.296Z,22.94
2017-10-22T09:14:45.469Z,22.96
2017-10-22T09:17:12.679Z,22.98
2017-10-22T09:19:39.882Z,22.97
2017-10-22T09:22:07.078Z,23.00
2017-10-22T09:24:34.288Z,23.01
2017-10-22T09:27:01.458Z,23.03
2017-10-22T09:29:28.646Z,23.04
2017-10-22T09:31:55.819Z,23.06
2017-10-22T09:34:23.011Z,23.07
2017-10-22T09:36:50.201Z,23.08
2017-10-22T09:41:50.735Z,23.10
2017-10-22T09:44:17.926Z,23.11
2017-10-22T09:46:45.160Z,23.12
2017-10-22T09:49:12.397Z,23.13
2017-10-22T09:51:39.633Z,23.15
2017-10-22T09:54:06.804Z,23.15
2017-10-22T09:56:33.980Z,23.16
2017-10-22T09:59:01.243Z,23.18
2017-10-22T10:01:28.447Z,23.19
2017-10-22T10:03:55.662Z,23.18
2017-10-22T10:06:22.853Z,23.19
2017-10-22T10:08:50.208Z,23.19
2017-10-22T10:11:17.416Z,23.19
2017-10-22T10:13:44.592Z,23.21
2017-10-22T10:16:11.791Z,23.24
2017-10-22T10:18:38.971Z,23.24
2017-10-22T10:21:06.151Z,23.24
2017-10-22T10:23:33.334Z,23.26
2017-10-22T10:26:00.549Z,23.26
2017-10-22T10:28:27.747Z,23.27
2017-10-22T10:30:54.913Z,23.30
2017-10-22T10:33:22.200Z,23.30
2017-10-22T10:35:49.380Z,23.31
2017-10-22T10:38:16.576Z,23.31
2017-10-22T10:40:43.817Z,23.31
2017-10-22T10:43:11.050Z,23.33
2017-10-22T10:45:38.224Z,23.35
2017-10-22T10:48:05.384Z,23.34
2017-10-22T10:50:32.636Z,23.36
2017-10-22T10:52:59.886Z,23.38
2017-10-22T10:55:27.085Z,23.39
2017-10-22T10:57:54.284Z,23.38
2017-10-22T11:00:21.508Z,23.40
2017-10-22T11:02:48.689Z,23.40
2017-10-22T11:05:15.909Z,23.41
2017-10-22T11:07:43.117Z,23.42
2017-10-22T11:10:10.339Z,23.44
2017-10-22T11:12:37.538Z,23.44
2017-10-22T11:15:04.695Z,23.45
2017-10-22T11:17:31.902Z,23.45
2017-10-22T11:19:59.058Z,23.46
2017-10-22T11:22:26.217Z,23.46
2017-10-22T11:24:53.424Z,23.49
2017-10-22T11:27:20.611Z,23.50
2017-10-22T11:29:47.844Z,23.50
2017-10-22T11:32:15.051Z,23.49
2017-10-22T11:34:42.212Z,23.51
2017-10-22T11:37:09.459Z,23.52
2017-10-22T11:39:36.691Z,23.55
2017-10-22T11:42:03.908Z,23.55
2017-10-22T11:44:31.063Z,23.57
2017-10-22T11:46:58.598Z,23.57
2017-10-22T11:49:27.276Z,23.58
2017-10-22T11:51:54.453Z,23.61
2017-10-22T11:54:21.660Z,23.61
2017-10-22T11:56:48.868Z,23.62
2017-10-22T11:59:16.148Z,23.63
2017-10-22T12:01:43.344Z,23.64
2017-10-22T12:04:10.508Z,23.64
2017-10-22T12:06:37.838Z,23.64
2017-10-22T12:09:05.130Z,23.67
2017-10-22T12:11:32.391Z,23.67
2017-10-22T12:13:59.605Z,23.68
2017-10-22T12:16:26.780Z,23.69
2017-10-22T12:18:53.989Z,23.68
2017-10-22T12:21:21.184Z,23.70
2017-10-22T12:23:48.403Z,23.71
2017-10-22T12:26:15.636Z,23.71
2017-10-22T12:28:42.836Z,23.72
2017-10-22T12:31:10.048Z,23.72
2017-10-22T12:33:37.231Z,23.75
2017-10-22T12:36:04.382Z,23.76
2017-10-22T12:38:31.599Z,23.75
2017-10-22T12:40:58.778Z,23.78
2017-10-22T12:43:25.968Z,23.79
2017-10-22T12:45:53.166Z,23.80
2017-10-22T12:48:20.376Z,23.79
2017-10-22T12:50:47.559Z,23.81
2017-10-22T12:53:14.787Z,23.81
2017-10-22T12:55:41.943Z,23.84
2017-10-22T12:58:09.189Z,23.85
2017-10-22T13:00:36.359Z,23.85
2017-10-22T13:03:03.515Z,23.87
2017-10-22T13:05:30.740Z,23.85
2017-10-22T13:07:57.919Z,23.87
2017-10-22T13:18:07.376Z,23.86
2017-10-22T13:20:35.075Z,23.87
2017-10-22T13:23:02.263Z,23.88
2017-10-22T13:25:29.491Z,23.87
2017-10-22T13:27:56.699Z,23.90
2017-10-22T13:30:23.896Z,23.89
2017-10-22T13:32:51.073Z,23.89
2017-10-22T13:35:18.286Z,23.90
2017-10-22T13:37:45.513Z,23.92
2017-10-22T13:40:12.683Z,23.91
2017-10-22T13:42:39.885Z,23.91
2017-10-22T13:45:07.090Z,23.93
2017-10-22T13:47:34.333Z,23.93
2017-10-22T13:50:01.612Z,23.93
2017-10-22T13:52:28.864Z,23.92
2017-10-22T13:54:56.017Z,23.93
2017-10-22T13:57:23.172Z,23.95
2017-10-22T13:59:50.389Z,23.95
2017-10-22T14:02:17.619Z,23.94
2017-10-22T14:04:44.785Z,23.93
2017-10-22T14:07:11.985Z,23.91
2017-10-22T14:09:39.150Z,23.92
2017-10-22T14:12:06.356Z,23.91
2017-10-22T14:14:33.520Z,23.92
2017-10-22T14:17:00.717Z,23.93
2017-10-22T14:19:27.895Z,23.92
2017-10-22T14:21:55.092Z,23.91
2017-10-22T14:24:22.284Z,23.91
2017-10-22T14:26:49.520Z,23.90
2017-10-22T14:29:16.707Z,23.90
2017-10-22T14:31:43.872Z,23.91
2017-10-22T14:34:11.089Z,23.91
2017-10-22T14:36:38.307Z,23.90
2017-10-22T14:39:05.486Z,23.90
2017-10-22T14:41:32.700Z,23.90
2017-10-22T14:43:59.935Z,23.90
2017-10-22T14:46:27.135Z,23.89
2017-10-22T14:48:54.328Z,23.89
2017-10-22T14:51:21.508Z,23.89
2017-10-22T14:53:48.664Z,23.89
2017-10-22T14:56:15.867Z,23.88
2017-10-22T14:58:43.030Z,23.87
2017-10-22T15:01:10.375Z,23.87
2017-10-22T15:03:37.581Z,23.87
2017-10-22T15:06:04.757Z,23.87
2017-10-22T15:08:31.977Z,23.84
2017-10-22T15:10:59.134Z,23.85
2017-10-22T15:13:26.295Z,23.84
2017-10-22T15:15:53.514Z,23.85
2017-10-22T15:18:20.668Z,23.84
2017-10-22T15:20:47.913Z,23.85
2017-10-22T15:23:15.084Z,23.84
2017-10-22T15:25:42.415Z,23.84
2017-10-22T15:28:09.606Z,23.84
2017-10-22T15:30:36.799Z,23.82
2017-10-22T15:33:03.951Z,23.83
2017-10-22T15:35:31.183Z,23.82
2017-10-22T15:37:58.411Z,23.81
2017-10-22T15:40:25.620Z,23.81
2017-10-22T15:42:52.822Z,23.81
2017-10-22T15:45:19.998Z,23.80
2017-10-22T15:47:47.188Z,23.79
2017-10-22T15:50:14.385Z,23.80
2017-10-22T15:52:41.562Z,23.79
2017-10-22T15:55:08.806Z,23.78
2017-10-22T15:57:35.971Z,23.77
2017-10-22T16:00:03.191Z,23.77
2017-10-22T16:02:30.352Z,23.76
2017-10-22T16:04:57.590Z,23.76
2017-10-22T16:07:24.838Z,23.75
2017-10-22T16:09:52.007Z,23.74
2017-10-22T16:12:19.199Z,23.74
2017-10-22T16:14:46.411Z,23.73
2017-10-22T16:17:13.572Z,23.73
2017-10-22T16:19:40.785Z,23.72
2017-10-22T16:22:07.965Z,23.72
2017-10-22T16:24:35.150Z,23.71
2017-10-22T16:27:02.405Z,23.70
2017-10-22T16:29:29.566Z,23.70
2017-10-22T16:31:56.748Z,23.68
2017-10-22T16:34:24.006Z,23.67
2017-10-22T16:36:51.150Z,23.66
2017-10-22T16:39:18.322Z,23.64
2017-10-22T16:41:45.556Z,23.64
2017-10-22T16:44:12.717Z,23.65
2017-10-22T16:46:39.952Z,23.63
2017-10-22T16:49:07.142Z,23.63
2017-10-22T16:51:34.316Z,23.63
2017-10-22T16:54:01.537Z,23.63
2017-10-22T16:56:28.718Z,23.62
2017-10-22T16:58:55.935Z,23.61
2017-10-22T17:01:23.129Z,23.61
2017-10-22T17:03:50.375Z,23.60
2017-10-22T17:06:17.544Z,23.60
2017-10-22T17:08:44.745Z,23.60
2017-10-22T17:11:13.429Z,23.59
2017-10-22T17:13:40.765Z,23.58
2017-10-22T17:16:08.043Z,23.57
2017-10-22T17:18:35.203Z,23.56
2017-10-22T17:21:02.422Z,23.55
2017-10-22T17:23:29.633Z,23.54
2017-10-22T17:25:56.787Z,23.53
2017-10-22T17:28:23.948Z,23.52
2017-10-22T17:30:51.143Z,23.52
2017-10-22T17:33:18.379Z,23.50
2017-10-22T17:35:45.552Z,23.50
2017-10-22T17:38:12.790Z,23.49
2017-10-22T17:40:40.017Z,23.48
2017-10-22T17:43:07.212Z,23.48
2017-10-22T17:45:34.413Z,23.48
2017-10-22T17:48:01.603Z,23.47
2017-10-22T17:50:28.815Z,23.46
2017-10-22T17:52:56.023Z,23.45
2017-10-22T17:55:23.190Z,23.45
2017-10-22T17:57:50.361Z,23.44
2017-10-22T18:00:17.606Z,23.42
2017-10-22T18:02:44.789Z,23.43
2017-10-22T18:05:12.028Z,23.42
2017-10-22T18:07:39.231Z,23.41
2017-10-22T18:10:06.427Z,23.39
2017-10-22T18:12:33.674Z,23.38
2017-10-22T18:15:00.892Z,23.38
2017-10-22T18:17:29.006Z,23.37
2017-10-22T18:19:56.148Z,23.36
2017-10-22T18:22:23.402Z,23.36
2017-10-22T18:24:50.583Z,23.35
2017-10-22T18:27:17.784Z,23.34
2017-10-22T18:29:45.015Z,23.33
2017-10-22T18:32:12.212Z,23.32
2017-10-22T18:34:39.447Z,23.32
2017-10-22T18:37:06.670Z,23.30
2017-10-22T18:39:33.901Z,23.30
2017-10-22T18:42:01.238Z,23.29
2017-10-22T18:44:28.477Z,23.29
2017-10-22T18:46:55.680Z,23.28
2017-10-22T18:49:22.943Z,23.26
2017-10-22T18:51:50.162Z,23.26
2017-10-22T18:54:17.344Z,23.25
2017-10-22T18:56:44.567Z,23.25
2017-10-22T18:59:11.870Z,23.23
2017-10-22T19:01:40.562Z,23.22
2017-10-22T19:04:07.735Z,23.21
2017-10-22T19:06:34.992Z,23.21
2017-10-22T19:09:02.142Z,23.20
2017-10-22T19:11:29.311Z,23.20
2017-10-22T19:13:56.605Z,23.18
2017-10-22T19:16:23.766Z,23.18
2017-10-22T19:18:50.951Z,23.16
2017-10-22T19:21:18.151Z,23.15
2017-10-22T19:23:45.349Z,23.15
2017-10-22T19:26:12.626Z,23.15
2017-10-22T19:28:39.789Z,23.13
2017-10-22T19:31:06.999Z,23.12
2017-10-22T19:33:34.159Z,23.11
2017-10-22T19:36:01.367Z,23.11
2017-10-22T19:38:28.566Z,23.09
2017-10-22T19:40:55.899Z,23.06
2017-10-22T19:43:23.063Z,23.02
2017-10-22T19:45:50.214Z,22.97
2017-10-22T19:48:18.471Z,22.91
2017-10-22T19:50:45.674Z,22.87
2017-10-22T19:53:12.891Z,22.80
2017-10-22T19:55:40.166Z,22.74
2017-10-22T19:58:07.343Z,22.69
2017-10-22T20:00:34.499Z,22.64
2017-10-22T20:03:01.725Z,22.59
2017-10-22T20:05:28.954Z,22.55
2017-10-22T20:07:56.159Z,22.52
2017-10-22T20:10:23.355Z,22.49
2017-10-22T20:12:50.575Z,22.46
2017-10-22T20:15:17.808Z,22.43
2017-10-22T20:17:45.028Z,22.40
2017-10-22T20:20:12.198Z,22.37
2017-10-22T20:22:39.433Z,22.35
2017-10-22T20:25:07.848Z,22.33
2017-10-22T20:27:35.067Z,22.30
2017-10-22T20:30:02.368Z,22.26
2017-10-22T20:32:29.527Z,22.26
2017-10-22T20:34:56.754Z,22.24
2017-10-22T20:37:23.956Z,22.22
2017-10-22T20:39:51.163Z,22.21
2017-10-22T20:42:18.367Z,22.18
2017-10-22T20:44:45.613Z,22.16
2017-10-22T20:47:12.866Z,22.15
2017-10-22T20:49:40.045Z,22.14
2017-10-22T20:52:07.257Z,22.12
2017-10-22T20:54:34.426Z,22.11
2017-10-22T20:57:01.674Z,22.09
2017-10-22T20:59:28.841Z,22.08
2017-10-22T21:01:56.158Z,22.07
2017-10-22T21:04:23.323Z,22.05
2017-10-22T21:06:50.576Z,22.04
2017-10-22T21:09:17.829Z,22.04
2017-10-22T21:11:45.063Z,22.02
2017-10-22T21:14:12.346Z,22.00
2017-10-22T21:16:39.561Z,21.99
2017-10-22T21:19:06.756Z,21.98
2017-10-22T21:21:33.970Z,21.97
2017-10-22T21:24:01.143Z,21.96
2017-10-22T21:26:28.516Z,21.96
2017-10-22T21:28:55.684Z,21.94
2017-10-22T21:31:22.912Z,21.93
2017-10-22T21:33:50.084Z,21.92
2017-10-22T21:36:17.309Z,21.92
2017-10-22T21:38:44.490Z,21.90
2017-10-22T21:41:11.720Z,21.90
2017-10-22T21:43:38.921Z,21.89
2017-10-22T21:46:06.218Z,21.88
2017-10-22T21:48:33.375Z,21.88
2017-10-22T21:51:00.677Z,21.87
2017-10-22T21:53:27.880Z,21.86
2017-10-22T21:55:55.062Z,21.86
2017-10-22T21:58:22.277Z,21.85
2017-10-22T22:00:49.523Z,21.81
2017-10-22T22:03:16.713Z,21.84
2017-10-22T22:05:43.919Z,21.83
2017-10-22T22:08:11.170Z,21.83
2017-10-22T22:10:38.379Z,21.83
2017-10-22T22:13:05.599Z,21.82
2017-10-22T22:15:32.822Z,21.81
2017-10-22T22:18:00.092Z,21.81
2017-10-22T22:20:27.286Z,21.79
2017-10-22T22:22:54.434Z,21.79
2017-10-22T22:25:21.666Z,21.78
2017-10-22T22:27:48.841Z,21.77
2017-10-22T22:30:16.058Z,21.77
2017-10-22T22:32:43.244Z,21.76
2017-10-22T22:35:10.483Z,21.75
2017-10-22T22:37:37.670Z,21.74
2017-10-22T22:40:04.928Z,21.74
2017-10-22T22:42:32.139Z,21.74
2017-10-22T22:44:59.293Z,21.72
2017-10-22T22:47:26.707Z,21.72
2017-10-22T22:49:53.914Z,21.71
2017-10-22T22:52:21.170Z,21.71
2017-10-22T22:54:48.369Z,21.71
2017-10-22T22:57:15.595Z,21.69
2017-10-22T22:59:42.783Z,21.70
2017-10-22T23:02:09.939Z,21.68
2017-10-22T23:04:37.175Z,21.67
2017-10-22T23:07:04.335Z,21.67
2017-10-22T23:09:31.559Z,21.67
2017-10-22T23:11:58.832Z,21.66
2017-10-22T23:14:26.043Z,21.67
2017-10-22T23:16:53.303Z,21.66
2017-10-22T23:19:20.479Z,21.66
2017-10-22T23:21:47.920Z,21.66
2017-10-22T23:24:15.080Z,21.65
2017-10-22T23:26:42.527Z,21.64
2017-10-22T23:29:09.773Z,21.63
2017-10-22T23:31:36.951Z,21.64
2017-10-22T23:34:04.184Z,21.62
2017-10-22T23:36:31.350Z,21.59
2017-10-22T23:38:58.529Z,21.61
2017-10-22T23:41:25.675Z,21.60
2017-10-22T23:43:52.923Z,21.59
2017-10-22T23:46:20.163Z,21.58
2017-10-22T23:48:47.397Z,21.58
2017-10-22T23:51:14.739Z,21.58
2017-10-22T23:53:41.904Z,21.57
2017-10-22T23:56:09.141Z,21.56
2017-10-22T23:58:36.332Z,21.55
